Alexandria, Egypt
Current Conditions -  °F | °C
As of 1:00 PM on Friday 19 Dec 2014 (Local Time) from HEAX Reporting Station
Scattered Clouds Scattered Clouds  
Wind Chill: 70°   Ceiling: Unl
Heat Index: 70°   Visibility: 6mi
Dew Point: 54°   Wind: 7mph
Humidity: 56%   Direction: 330°NNW
Pressure: 30.06"   Gusts: NA
Location:  31.22°N, 29.95°E
Report Text: HEAX 191100Z 33006KT 9999 SCT020 SCT022 21/12 Q1018 NOSIG
Loading
Personal Weather Stations






























Interactive Weather Map New forecast layout! Learn more

10-Day Weather Forecast

Advertisements
Track Severe Weather on mobile